サンパウロ/グアルーリョス の空港の天気 - METARとTAF

グアルーリョス国際空港 (サンパウロ) ( SBGR / GRU ) - ブラジル サンパウロ州サンパウロ市
飛行場実況気象(Metar)
観測時間05/28 08:00 BRT (05/28 11:00 UTC)
風向・風速東北東 2m/s
視程10km以上
天気現象
なし
気温14℃
湿度88%
気圧1021hPa
METARSBGR 281100Z 07004KT CAVOK 14/12 Q1021
過去の天気等 Google飛行場航空写真 Wunderground天気予報

過去48時間のMETAR

飛行場予報(TAF)
発表時間: 5/27 22:00 BRT (5/28 01:00 UTC)
予報対象時間: 28日3時 BRT ~ 29日9時 BRT
風向・風速東北東 2m/s
視程10km以上
なし
28日10時 BRT ~ 28日12時 BRT に徐々に
風向・風速北北西 3m/s
全天の4割程度の雲 雲底高度 1220m
28日15時 BRT ~ 28日17時 BRT に徐々に
視程10km以上
なし
28日19時 BRT ~ 28日21時 BRT に徐々に
風向・風速東北東 1m/s
29日2時 BRT ~ 29日4時 BRT に徐々に
風向・風速北東 3m/s
29日6時 BRT ~ 29日8時 BRT に徐々に
風向・風速北 4m/s
TAF SBGR 280100Z 2806/2912 07003KT CAVOK TN13/2809Z TX26/2818Z
BECMG 2813/2815 34005KT SCT040
BECMG 2818/2820 CAVOK
BECMG 2822/2824 07002KT
BECMG 2905/2907 04005KT
BECMG 2909/2911 36007KT RMK PGN